Flight Track Log - Related Links

Times and Time Zones

All times are in EDT time to prevent confusion due to time zone crossing. See the SWA2068 flight status page for this flight to view local times or setup timezone preferences in your user account.

Time Position Orientation Groundspeed Altitude Reporting Facility
EDT Latitude Longitude Course Direction KTS MPH feet Rate Location/Type
Sat 07:16:01 AM 36.1333 -86.7000 302° West 162 186 1,400  Level Nashville TRACON
Sat 07:16:43 AM 36.1500 -86.7333 302° West 163 188 2,800 2,294 Climbing Nashville TRACON
Sat 07:17:43 AM 36.1167 -86.7667 219° Southwest 219 252 5,300 2,366 Climbing Nashville TRACON
Sat 07:19:38 AM 36.0764 -86.6667 116° Southeast 249 287 9,700 2,297 Climbing Memphis Center
Sat 07:20:38 AM 36.1003 -86.5578 75° East 285 328 12,000 2,700 Climbing Memphis Center
Sat 07:21:38 AM 36.1258 -86.4358 75° East 343 395 15,100 3,000 Climbing Memphis Center
Sat 07:22:38 AM 36.1511 -86.3136 76° East 363 418 18,000 2,750 Climbing Memphis Center
Sat 07:23:38 AM 36.1800 -86.1786 75° East 385 443 20,600 2,290 Climbing Memphis Center
Sat 07:26:05 AM 36.2894 -85.8700 66° East 434 499 25,900 2,135 Climbing Indianapolis Center
Sat 07:27:06 AM 36.3506 -85.7369 60° Northeast 439 505 28,000 1,918 Climbing Indianapolis Center
Sat 07:28:07 AM 36.4164 -85.6025 59° Northeast 449 517 29,800 1,623 Climbing Indianapolis Center
Sat 07:29:08 AM 36.4808 -85.4639 60° Northeast 460 529 31,300 1,770 Climbing Indianapolis Center
Sat 07:30:09 AM 36.5478 -85.3244 59° Northeast 465 535 33,400 1,869 Climbing Indianapolis Center
Sat 07:31:10 AM 36.6131 -85.1836 60° Northeast 468 539 35,100 1,623 Climbing Indianapolis Center
Sat 07:32:11 AM 36.6589 -85.0347 69° East 461 531 36,700 1,672 Climbing Indianapolis Center
Sat 07:33:12 AM 36.7044 -84.8858 69° East 459 528 38,500 1,131 Climbing Indianapolis Center
Sat 07:34:13 AM 36.7575 -84.7133 69° East 445 512 39,000 246 Climbing Indianapolis Center
Sat 07:35:14 AM 36.8017 -84.5689 69° East 445 512 39,000  Level Indianapolis Center
Sat 07:36:16 AM 36.8425 -84.4353 69° East 446 513 39,000  Level Indianapolis Center
Sat 07:37:17 AM 36.8853 -84.2900 70° East 445 512 39,000  Level Indianapolis Center
Sat 07:38:18 AM 36.9278 -84.1450 70° East 444 511 39,000  Level Indianapolis Center
Sat 07:39:19 AM 36.9717 -83.9994 69° East 448 516 39,000  Level Indianapolis Center
Sat 07:40:20 AM 37.0231 -83.8297 69° East 446 513 39,000  Level Indianapolis Center
Sat 07:41:21 AM 37.0653 -83.6856 70° East 442 509 39,000  Level Indianapolis Center
Sat 07:42:22 AM 37.1083 -83.5392 70° East 446 513 39,000  Level Indianapolis Center
Sat 07:43:23 AM 37.1511 -83.3939 70° East 443 510 39,000  Level Indianapolis Center
Sat 07:44:25 AM 37.1933 -83.2456 70° East 447 514 39,000  Level Indianapolis Center
Sat 07:45:26 AM 37.2364 -83.0975 70° East 447 514 39,000  Level Indianapolis Center
Sat 07:46:27 AM 37.2797 -82.9481 70° East 450 518 39,000  Level Indianapolis Center
Sat 07:47:28 AM 37.3225 -82.7981 70° East 452 520 39,000  Level Indianapolis Center
Sat 07:48:29 AM 37.3644 -82.6481 71° East 453 521 39,000  Level Indianapolis Center
Sat 07:49:30 AM 37.4064 -82.4978 71° East 453 521 39,000  Level Indianapolis Center
Sat 07:50:31 AM 37.4486 -82.3489 70° East 451 519 39,000  Level Indianapolis Center
Sat 07:51:33 AM 37.4908 -82.1992 70° East 452 520 39,000  Level Indianapolis Center
Sat 07:52:34 AM 37.5311 -82.0494 71° East 450 518 39,000  Level Indianapolis Center
Sat 07:53:35 AM 37.5722 -81.9006 71° East 449 517 39,000  Level Indianapolis Center
Sat 07:54:36 AM 37.6133 -81.7508 71° East 452 520 39,000  Level Indianapolis Center
Sat 07:55:37 AM 37.6592 -81.5753 72° East 451 519 39,000  Level Indianapolis Center
Sat 07:56:38 AM 37.6972 -81.4367 71° East 453 521 39,000  Level Indianapolis Center
Sat 07:57:40 AM 37.7369 -81.2894 71° East 455 524 39,000  Level Indianapolis Center
Sat 07:58:41 AM 37.7761 -81.1414 71° East 455 524 39,000  Level Indianapolis Center
Sat 07:59:42 AM 37.7997 -80.9561 81° East 457 526 39,000  Level Indianapolis Center
Sat 08:00:43 AM 37.8161 -80.8108 82° East 459 528 39,000  Level Indianapolis Center
Sat 08:01:44 AM 37.8336 -80.6519 82° East 458 527 39,000  Level Indianapolis Center
Sat 08:02:45 AM 37.8517 -80.4944 82° East 455 524 39,000  Level Indianapolis Center
Sat 08:03:47 AM 37.8925 -80.3150 74° East 447 514 39,000 -488 Level Indianapolis Center
Sat 08:04:48 AM 37.9375 -80.1711 68° East 450 518 38,000 -984 Descending Indianapolis Center
Sat 08:05:49 AM 37.9842 -80.0244 68° East 456 525 37,000 -492 Descending Indianapolis Center
Sat 08:06:50 AM 38.0292 -79.8775 69° East 458 527 37,000  Level Indianapolis Center
Sat 08:07:51 AM 38.0753 -79.7317 68° East 456 525 37,000  Level Indianapolis Center
Sat 08:08:52 AM 38.1306 -79.5572 68° East 456 525 37,000 -976 Level Indianapolis Center
Sat 08:09:54 AM 38.1736 -79.4117 69° East 452 520 35,000 -2,203 Descending Indianapolis Center
Sat 08:11:00 AM 38.2303 -79.2475 66° East 442 509 32,300 -2,220 Descending Washington Center
Sat 08:12:01 AM 38.2761 -79.1069 67° East 442 509 30,300 -1,884 Descending Washington Center
Sat 08:13:01 AM 38.3178 -78.9658 69° East 435 501 28,500 -1,563 Descending Washington Center
Sat 08:14:00 AM 38.3569 -78.8247 70° East 425 489 27,200 -1,150 Descending Washington Center
Sat 08:15:01 AM 38.4006 -78.6783 69° East 425 489 26,200 -992 Descending Washington Center
Sat 08:16:01 AM 38.4436 -78.5369 69° East 425 489 25,200 -1,169 Descending Washington Center
Sat 08:16:59 AM 38.4867 -78.3928 69° East 425 489 23,900 -2,000 Descending Washington Center
Sat 08:18:01 AM 38.5275 -78.2508 70° East 425 489 21,200 -1,918 Descending Washington Center
Sat 08:19:01 AM 38.5681 -78.1117 70° East 425 489 20,000 -1,091 Descending Washington Center
Sat 08:20:02 AM 38.6061 -77.9800 70° East 414 476 19,000 -504 Descending Washington Center
Sat 08:21:00 AM 38.6400 -77.8403 73° East 408 470 19,000  Level Washington Center
Sat 08:22:00 AM 38.6511 -77.6969 84° East 401 461 19,000 -198 Level Washington Center
Sat 08:23:01 AM 38.6578 -77.5536 87° East 396 456 18,600 -1,230 Descending Washington Center
Sat 08:24:02 AM 38.6661 -77.4156 86° East 396 456 16,500 -1,361 Descending Washington Center
Sat 08:25:00 AM 38.6744 -77.2775 86° East 391 450 15,900 -1,322 Descending Washington Center
Sat 08:26:00 AM 38.6825 -77.1422 86° East 385 443 13,900 -1,983 Descending Washington Center
Sat 08:27:01 AM 38.6903 -77.0119 86° East 373 429 11,900 -1,785 Descending Washington Center
Sat 08:28:01 AM 38.6978 -76.8897 85° East 360 414 10,300 -1,289 Descending Washington Center
Sat 08:29:02 AM 38.7033 -76.7728 86° East 345 397 9,300 -1,008 Descending Washington Center
Sat 08:30:00 AM 38.7333 -76.6747 69° East 297 342 8,300 -1,296 Descending Washington Center
Sat 08:31:07 AM 38.7833 -76.5667 59° Northeast 299 344 6,600 -1,140 Descending Potomac TRACON
Sat 08:32:01 AM 38.8333 -76.5167 38° Northeast 285 328 6,000 -895 Descending Potomac TRACON
Sat 08:33:01 AM 38.9167 -76.5167 360° North 278 320 4,900 -1,150 Descending Potomac TRACON
Sat 08:34:01 AM 38.9833 -76.5333 349° North 270 311 3,700 -1,200 Descending Potomac TRACON
Sat 08:35:01 AM 39.0667 -76.5333 360° North 257 296 2,500 -887 Descending Potomac TRACON
Sat 08:35:56 AM 39.1333 -76.5333 360° North 238 274 2,000 -474 Descending Potomac TRACON
Sat 08:36:55 AM 39.1667 -76.5667 322° Northwest 155 178 1,600 -550 Descending Potomac TRACON
Sat 08:37:56 AM 39.1667 -76.6000 270° West 126 145 900 -689 Descending Potomac TRACON
Sat 08:39:00 AM 39.1667 -76.6667 339° North  Level FlightAware Approximate
Sat 08:46:00 AM 39.1754 -76.6683 339° North  Level Estimated
Sat 08:47:00 AM 39.1754 -76.6683 339° North  Level Estimated
Sat 08:48:00 AM 39.1754 -76.6683 339° North  Level Estimated
Sat 08:49:00 AM 39.1754 -76.6683 339° North  Level Estimated
Sat 08:50:00 AM 39.1754 -76.6683 339° North  Level Estimated

Login

Don't have an account? Register now (free) for customized features, flight alerts, and more!